sensor_id;sensor_type;location;lat;lon;timestamp;pressure;altitude;pressure_sealevel;temperature;humidity
11985;BME280;6052;53.246;10.368;2023-03-03T15:03:58;101735.06;;;6.71;99.86
11985;BME280;6052;53.246;10.368;2023-03-03T15:06:34;101726.03;;;6.72;99.88
11985;BME280;6052;53.246;10.368;2023-03-03T15:09:27;101724.22;;;6.73;99.59
11985;BME280;6052;53.246;10.368;2023-03-03T15:12:00;101716.22;;;6.73;99.04
11985;BME280;6052;53.246;10.368;2023-03-03T15:14:35;101721.56;;;6.73;98.41
11985;BME280;6052;53.246;10.368;2023-03-03T15:17:19;101723.38;;;6.72;98.14
11985;BME280;6052;53.246;10.368;2023-03-03T15:20:21;101717.69;;;6.75;97.03
11985;BME280;6052;53.246;10.368;2023-03-03T15:23:14;101719.16;;;6.78;95.37
11985;BME280;6052;53.246;10.368;2023-03-03T15:29:07;101712.53;;;6.74;95.07
11985;BME280;6052;53.246;10.368;2023-03-03T15:31:50;101712.91;;;6.71;95.34
11985;BME280;6052;53.246;10.368;2023-03-03T15:34:32;101708.03;;;6.74;95.13
11985;BME280;6052;53.246;10.368;2023-03-03T15:37:13;101701.31;;;6.78;94.98
11985;BME280;6052;53.246;10.368;2023-03-03T15:39:57;101710.25;;;6.71;94.47
11985;BME280;6052;53.246;10.368;2023-03-03T15:42:32;101701.59;;;6.69;94.66
11985;BME280;6052;53.246;10.368;2023-03-03T15:45:13;101698.81;;;6.77;94.60
11985;BME280;6052;53.246;10.368;2023-03-03T15:47:55;101700.56;;;6.84;93.84
11985;BME280;6052;53.246;10.368;2023-03-03T15:50:35;101698.44;;;6.80;93.28
11985;BME280;6052;53.246;10.368;2023-03-03T15:53:25;101688.69;;;6.87;93.58
11985;BME280;6052;53.246;10.368;2023-03-03T15:56:10;101698.31;;;6.88;93.61
11985;BME280;6052;53.246;10.368;2023-03-03T15:59:02;101698.31;;;6.88;93.12
11985;BME280;6052;53.246;10.368;2023-03-03T16:01:40;101686.09;;;6.93;93.12
11985;BME280;6052;53.246;10.368;2023-03-03T16:04:15;101692.56;;;6.84;93.96
11985;BME280;6052;53.246;10.368;2023-03-03T16:06:48;101690.63;;;6.78;94.60
11985;BME280;6052;53.246;10.368;2023-03-03T16:09:33;101688.41;;;6.82;94.78
11985;BME280;6052;53.246;10.368;2023-03-03T16:12:15;101688.50;;;6.88;94.11
11985;BME280;6052;53.246;10.368;2023-03-03T16:15:10;101685.00;;;6.88;93.46
11985;BME280;6052;53.246;10.368;2023-03-03T16:17:50;101693.56;;;6.83;93.14
11985;BME280;6052;53.246;10.368;2023-03-03T16:20:27;101689.88;;;6.84;92.83
11985;BME280;6052;53.246;10.368;2023-03-03T16:23:26;101699.53;;;6.85;92.48
11985;BME280;6052;53.246;10.368;2023-03-03T16:26:12;101690.69;;;6.85;92.65
11985;BME280;6052;53.246;10.368;2023-03-03T16:28:54;101694.13;;;6.79;92.71
11985;BME280;6052;53.246;10.368;2023-03-03T16:31:33;101694.13;;;6.79;92.88
11985;BME280;6052;53.246;10.368;2023-03-03T16:34:12;101702.56;;;6.82;92.63
11985;BME280;6052;53.246;10.368;2023-03-03T16:36:56;101706.06;;;6.83;92.21
11985;BME280;6052;53.246;10.368;2023-03-03T16:39:45;101696.03;;;6.85;92.08
11985;BME280;6052;53.246;10.368;2023-03-03T16:42:24;101700.91;;;6.81;91.55
11985;BME280;6052;53.246;10.368;2023-03-03T16:45:14;101697.31;;;6.89;91.37
11985;BME280;6052;53.246;10.368;2023-03-03T16:47:55;101700.28;;;6.79;91.36
11985;BME280;6052;53.246;10.368;2023-03-03T16:50:34;101710.38;;;6.84;90.95
11985;BME280;6052;53.246;10.368;2023-03-03T16:53:17;101701.31;;;6.78;90.82
11985;BME280;6052;53.246;10.368;2023-03-03T16:55:55;101699.34;;;6.87;91.38
11985;BME280;6052;53.246;10.368;2023-03-03T16:58:38;101709.94;;;6.80;91.38
11985;BME280;6052;53.246;10.368;2023-03-03T17:01:20;101706.91;;;6.83;91.64
11985;BME280;6052;53.246;10.368;2023-03-03T17:03:58;101701.78;;;6.67;91.68
11985;BME280;6052;53.246;10.368;2023-03-03T17:06:32;101707.28;;;6.80;91.05
11985;BME280;6052;53.246;10.368;2023-03-03T17:09:37;101709.59;;;6.69;91.19
11985;BME280;6052;53.246;10.368;2023-03-03T17:12:27;101706.69;;;6.85;90.61
11985;BME280;6052;53.246;10.368;2023-03-03T17:18:06;101714.16;;;6.75;91.10
11985;BME280;6052;53.246;10.368;2023-03-03T17:20:45;101709.41;;;6.70;91.35
11985;BME280;6052;53.246;10.368;2023-03-03T17:23:40;101709.41;;;6.70;91.56
11985;BME280;6052;53.246;10.368;2023-03-03T17:26:20;101713.53;;;6.73;91.22
11985;BME280;6052;53.246;10.368;2023-03-03T17:28:59;101713.44;;;6.81;90.77
11985;BME280;6052;53.246;10.368;2023-03-03T17:31:36;101710.56;;;6.82;91.05
11985;BME280;6052;53.246;10.368;2023-03-03T17:34:24;101714.34;;;6.88;91.04
11985;BME280;6052;53.246;10.368;2023-03-03T17:37:06;101712.03;;;6.85;90.75
11985;BME280;6052;53.246;10.368;2023-03-03T17:39:53;101709.78;;;6.67;91.54
11985;BME280;6052;53.246;10.368;2023-03-03T17:42:32;101712.72;;;6.72;91.84
11985;BME280;6052;53.246;10.368;2023-03-03T17:45:07;101714.84;;;6.77;91.60
11985;BME280;6052;53.246;10.368;2023-03-03T17:47:46;101707.47;;;6.79;91.36
11985;BME280;6052;53.246;10.368;2023-03-03T17:50:39;101714.00;;;6.76;91.45
11985;BME280;6052;53.246;10.368;2023-03-03T17:53:34;101703.75;;;6.80;91.37
11985;BME280;6052;53.246;10.368;2023-03-03T17:56:15;101705.44;;;6.81;91.42
11985;BME280;6052;53.246;10.368;2023-03-03T18:02:14;101704.41;;;6.82;91.04
11985;BME280;6052;53.246;10.368;2023-03-03T18:05:24;101696.53;;;6.74;91.91
11985;BME280;6052;53.246;10.368;2023-03-03T18:08:08;101703.75;;;6.80;91.75
11985;BME280;6052;53.246;10.368;2023-03-03T18:11:13;101697.44;;;6.81;92.21
11985;BME280;6052;53.246;10.368;2023-03-03T18:14:04;101702.31;;;6.77;92.18
11985;BME280;6052;53.246;10.368;2023-03-03T18:16:48;101700.38;;;6.86;91.82
11985;BME280;6052;53.246;10.368;2023-03-03T18:19:33;101687.50;;;6.75;92.03
11985;BME280;6052;53.246;10.368;2023-03-03T18:22:19;101689.44;;;6.81;92.17
11985;BME280;6052;53.246;10.368;2023-03-03T18:24:59;101695.22;;;6.84;92.14
11985;BME280;6052;53.246;10.368;2023-03-03T18:27:35;101692.16;;;6.87;92.09
11985;BME280;6052;53.246;10.368;2023-03-03T18:30:25;101694.56;;;6.82;92.92
11985;BME280;6052;53.246;10.368;2023-03-03T18:33:02;101697.00;;;6.63;92.59
11985;BME280;6052;53.246;10.368;2023-03-03T18:35:36;101701.41;;;6.70;92.86
11985;BME280;6052;53.246;10.368;2023-03-03T18:38:24;101699.94;;;6.68;92.44
11985;BME280;6052;53.246;10.368;2023-03-03T18:40:59;101704.41;;;6.82;92.53
11985;BME280;6052;53.246;10.368;2023-03-03T18:46:43;101703.31;;;6.76;92.47
11985;BME280;6052;53.246;10.368;2023-03-03T18:49:14;101706.16;;;6.75;92.07
11985;BME280;6052;53.246;10.368;2023-03-03T18:51:52;101711.97;;;6.78;92.26
11985;BME280;6052;53.246;10.368;2023-03-03T18:55:03;101706.69;;;6.85;92.66
11985;BME280;6052;53.246;10.368;2023-03-03T18:57:35;101702.56;;;6.82;92.07
11985;BME280;6052;53.246;10.368;2023-03-03T19:00:14;101705.91;;;6.70;92.61
11985;BME280;6052;53.246;10.368;2023-03-03T19:02:50;101702.50;;;6.76;92.83
11985;BME280;6052;53.246;10.368;2023-03-03T19:05:22;101696.97;;;6.77;92.94
11985;BME280;6052;53.246;10.368;2023-03-03T19:07:58;101696.41;;;6.82;92.49
11985;BME280;6052;53.246;10.368;2023-03-03T19:10:52;101690.25;;;6.81;92.49
11985;BME280;6052;53.246;10.368;2023-03-03T19:13:42;101698.66;;;6.78;92.09
11985;BME280;6052;53.246;10.368;2023-03-03T19:16:30;101695.63;;;6.67;92.79
11985;BME280;6052;53.246;10.368;2023-03-03T19:19:13;101687.72;;;6.59;93.11
11985;BME280;6052;53.246;10.368;2023-03-03T19:21:44;101677.31;;;6.64;92.99
11985;BME280;6052;53.246;10.368;2023-03-03T19:24:29;101675.34;;;6.72;92.71
11985;BME280;6052;53.246;10.368;2023-03-03T19:27:32;101679.72;;;6.73;92.58
11985;BME280;6052;53.246;10.368;2023-03-03T19:34:12;101675.19;;;6.74;91.69
11985;BME280;6052;53.246;10.368;2023-03-03T19:37:01;101675.56;;;6.71;91.60
11985;BME280;6052;53.246;10.368;2023-03-03T19:39:52;101681.91;;;6.70;91.56
11985;BME280;6052;53.246;10.368;2023-03-03T19:42:39;101676.69;;;6.62;91.47
11985;BME280;6052;53.246;10.368;2023-03-03T19:45:24;101676.19;;;6.73;91.64
11985;BME280;6052;53.246;10.368;2023-03-03T19:48:04;101674.16;;;6.75;91.60
11985;BME280;6052;53.246;10.368;2023-03-03T19:50:46;101669.84;;;6.74;91.23
11985;BME280;6052;53.246;10.368;2023-03-03T19:54:05;101666.28;;;6.67;91.39
11985;BME280;6052;53.246;10.368;2023-03-03T19:57:09;101676.09;;;6.81;91.07
11985;BME280;6052;53.246;10.368;2023-03-03T20:00:44;101662.69;;;6.60;91.35
11985;BME280;6052;53.246;10.368;2023-03-03T20:06:51;101663.09;;;6.57;91.74
11985;BME280;6052;53.246;10.368;2023-03-03T20:09:36;101663.41;;;6.68;91.10
11985;BME280;6052;53.246;10.368;2023-03-03T20:12:44;101663.97;;;6.64;91.90
11985;BME280;6052;53.246;10.368;2023-03-03T20:15:24;101661.63;;;6.40;91.81
11985;BME280;6052;53.246;10.368;2023-03-03T20:21:18;101665.81;;;6.63;91.96
11985;BME280;6052;53.246;10.368;2023-03-03T20:24:27;101670.34;;;6.63;91.62
11985;BME280;6052;53.246;10.368;2023-03-03T20:27:15;101663.22;;;6.70;91.90
11985;BME280;6052;53.246;10.368;2023-03-03T20:30:06;101665.53;;;6.73;91.67
11985;BME280;6052;53.246;10.368;2023-03-03T20:33:17;101662.44;;;6.55;92.46
11985;BME280;6052;53.246;10.368;2023-03-03T20:36:21;101657.31;;;6.39;92.16
11985;BME280;6052;53.246;10.368;2023-03-03T20:39:04;101656.22;;;6.48;92.67
11985;BME280;6052;53.246;10.368;2023-03-03T20:41:51;101655.00;;;6.50;92.01
11985;BME280;6052;53.246;10.368;2023-03-03T20:44:32;101645.88;;;6.59;92.38
11985;BME280;6052;53.246;10.368;2023-03-03T20:47:12;101652.59;;;6.55;92.40
11985;BME280;6052;53.246;10.368;2023-03-03T20:50:10;101653.69;;;6.61;92.01
11985;BME280;6052;53.246;10.368;2023-03-03T20:52:51;101659.22;;;6.45;92.52
11985;BME280;6052;53.246;10.368;2023-03-03T20:55:30;101648.34;;;6.61;92.41
11985;BME280;6052;53.246;10.368;2023-03-03T20:58:06;101640.28;;;6.54;92.67
11985;BME280;6052;53.246;10.368;2023-03-03T21:00:41;101644.25;;;6.44;92.66
11985;BME280;6052;53.246;10.368;2023-03-03T21:03:16;101646.38;;;6.34;93.52
11985;BME280;6052;53.246;10.368;2023-03-03T21:06:06;101645.91;;;6.45;93.74
11985;BME280;6052;53.246;10.368;2023-03-03T21:08:43;101637.00;;;6.38;93.74
11985;BME280;6052;53.246;10.368;2023-03-03T21:11:15;101638.09;;;6.43;93.60
11985;BME280;6052;53.246;10.368;2023-03-03T21:13:46;101642.59;;;6.43;93.59
11985;BME280;6052;53.246;10.368;2023-03-03T21:16:29;101633.59;;;6.44;93.64
11985;BME280;6052;53.246;10.368;2023-03-03T21:19:04;101626.34;;;6.23;94.08
11985;BME280;6052;53.246;10.368;2023-03-03T21:21:38;101624.44;;;6.32;94.48
11985;BME280;6052;53.246;10.368;2023-03-03T21:24:12;101631.03;;;6.36;94.31
11985;BME280;6052;53.246;10.368;2023-03-03T21:26:48;101630.56;;;6.47;94.17
11985;BME280;6052;53.246;10.368;2023-03-03T21:29:23;101620.84;;;6.39;94.12
11985;BME280;6052;53.246;10.368;2023-03-03T21:31:54;101618.16;;;6.39;94.51
11985;BME280;6052;53.246;10.368;2023-03-03T21:34:27;101618.44;;;6.30;94.62
11985;BME280;6052;53.246;10.368;2023-03-03T21:37:00;101620.34;;;6.36;95.80
11985;BME280;6052;53.246;10.368;2023-03-03T21:39:34;101609.00;;;6.13;96.00
11985;BME280;6052;53.246;10.368;2023-03-03T21:42:06;101608.78;;;6.29;96.60
11985;BME280;6052;53.246;10.368;2023-03-03T21:44:38;101610.00;;;6.26;96.40
11985;BME280;6052;53.246;10.368;2023-03-03T21:47:11;101617.06;;;6.19;96.39
11985;BME280;6052;53.246;10.368;2023-03-03T21:49:42;101611.84;;;6.11;97.30
11985;BME280;6052;53.246;10.368;2023-03-03T21:52:18;101610.34;;;6.38;96.79
11985;BME280;6052;53.246;10.368;2023-03-03T21:54:49;101608.88;;;6.35;96.76
11985;BME280;6052;53.246;10.368;2023-03-03T21:57:19;101612.22;;;6.23;97.62
11985;BME280;6052;53.246;10.368;2023-03-03T21:59:48;101604.19;;;6.37;97.18
11985;BME280;6052;53.246;10.368;2023-03-03T22:02:19;101604.28;;;6.29;97.75
11985;BME280;6052;53.246;10.368;2023-03-03T22:04:48;101602.25;;;6.31;98.61
11985;BME280;6052;53.246;10.368;2023-03-03T22:07:20;101606.22;;;6.21;98.47
11985;BME280;6052;53.246;10.368;2023-03-03T22:09:50;101608.78;;;6.29;98.90
11985;BME280;6052;53.246;10.368;2023-03-03T22:12:19;101604.84;;;6.25;99.40
11985;BME280;6052;53.246;10.368;2023-03-03T22:14:48;101595.38;;;6.22;99.85
11985;BME280;6052;53.246;10.368;2023-03-03T22:17:18;101596.94;;;6.17;100.00
11985;BME280;6052;53.246;10.368;2023-03-03T22:19:50;101601.59;;;6.29;100.00
11985;BME280;6052;53.246;10.368;2023-03-03T22:22:25;101592.03;;;6.35;100.00
11985;BME280;6052;53.246;10.368;2023-03-03T22:24:54;101600.88;;;6.35;100.00
11985;BME280;6052;53.246;10.368;2023-03-03T22:27:25;101592.06;;;6.56;99.84
11985;BME280;6052;53.246;10.368;2023-03-03T22:29:55;101593.75;;;6.57;99.82
11985;BME280;6052;53.246;10.368;2023-03-03T22:32:25;101591.16;;;6.28;100.00
11985;BME280;6052;53.246;10.368;2023-03-03T22:34:55;101592.56;;;6.45;100.00
11985;BME280;6052;53.246;10.368;2023-03-03T22:37:27;101595.81;;;6.40;100.00
11985;BME280;6052;53.246;10.368;2023-03-03T22:39:56;101595.47;;;6.29;100.00
11985;BME280;6052;53.246;10.368;2023-03-03T22:42:28;101595.69;;;6.48;100.00
11985;BME280;6052;53.246;10.368;2023-03-03T22:44:57;101595.50;;;6.50;100.00
11985;BME280;6052;53.246;10.368;2023-03-03T22:47:27;101596.53;;;6.49;100.00
11985;BME280;6052;53.246;10.368;2023-03-03T22:49:58;101584.22;;;6.48;100.00
11985;BME280;6052;53.246;10.368;2023-03-03T22:52:30;101585.44;;;6.31;100.00
11985;BME280;6052;53.246;10.368;2023-03-03T22:54:59;101596.16;;;6.52;100.00
11985;BME280;6052;53.246;10.368;2023-03-03T22:57:29;101585.97;;;6.41;100.00
11985;BME280;6052;53.246;10.368;2023-03-03T23:01:37;101587.91;;;6.32;100.00
11985;BME280;6052;53.246;10.368;2023-03-03T23:03:16;101589.72;;;6.46;100.00
11985;BME280;6052;53.246;10.368;2023-03-03T23:15:03;101587.50;;;6.50;100.00
11985;BME280;6052;53.246;10.368;2023-03-03T23:26:29;101577.34;;;6.39;100.00
11985;BME280;6052;53.246;10.368;2023-03-03T23:29:15;101578.94;;;6.54;100.00
11985;BME280;6052;53.246;10.368;2023-03-03T23:32:01;101570.81;;;6.41;100.00
11985;BME280;6052;53.246;10.368;2023-03-03T23:37:13;101570.13;;;6.54;100.00
11985;BME280;6052;53.246;10.368;2023-03-03T23:39:42;101560.84;;;6.50;100.00
11985;BME280;6052;53.246;10.368;2023-03-03T23:42:12;101574.94;;;6.44;100.00
11985;BME280;6052;53.246;10.368;2023-03-03T23:44:42;101572.78;;;6.54;100.00
11985;BME280;6052;53.246;10.368;2023-03-03T23:47:14;101574.81;;;6.52;100.00
11985;BME280;6052;53.246;10.368;2023-03-03T23:49:44;101568.03;;;6.49;100.00
11985;BME280;6052;53.246;10.368;2023-03-03T23:52:14;101569.34;;;6.60;100.00
11985;BME280;6052;53.246;10.368;2023-03-03T23:54:44;101561.00;;;6.48;100.00
11985;BME280;6052;53.246;10.368;2023-03-03T23:57:14;101562.88;;;6.69;100.00
11985;BME280;6052;53.246;10.368;2023-03-03T23:59:44;101564.78;;;6.54;100.00
